createdAt,value
2019-05-22T00:05:17.394Z,111.37
2019-05-22T00:07:48.807Z,138.68
2019-05-22T00:10:24.471Z,140.85
2019-05-22T00:12:55.058Z,111.45
2019-05-22T00:15:24.965Z,108.55
2019-05-22T00:20:26.041Z,148.72
2019-05-22T00:22:58.033Z,161.77
2019-05-22T00:25:29.282Z,142.25
2019-05-22T00:27:59.759Z,150.22
2019-05-22T00:30:32.384Z,122.13
2019-05-22T00:33:02.362Z,121.02
2019-05-22T00:35:32.042Z,108.00
2019-05-22T00:38:04.690Z,107.72
2019-05-22T00:40:37.108Z,115.22
2019-05-22T00:43:13.802Z,100.80
2019-05-22T00:45:40.278Z,127.67
2019-05-22T00:48:11.727Z,108.12
2019-05-22T00:50:55.531Z,129.10
2019-05-22T00:53:47.403Z,145.22
2019-05-22T00:56:38.354Z,125.25
2019-05-22T01:01:54.570Z,104.75
2019-05-22T01:04:25.768Z,95.55
2019-05-22T01:06:58.024Z,114.15
2019-05-22T01:09:40.074Z,122.42
2019-05-22T01:12:17.174Z,154.20
2019-05-22T01:14:47.087Z,87.47
2019-05-22T01:19:48.791Z,53.17
2019-05-22T01:22:20.450Z,67.10
2019-05-22T01:24:53.801Z,72.75
2019-05-22T01:27:26.072Z,79.60
2019-05-22T01:29:57.326Z,65.55
2019-05-22T01:32:38.017Z,103.17
2019-05-22T01:35:10.387Z,98.20
2019-05-22T01:37:42.062Z,99.97
2019-05-22T01:40:20.498Z,149.62
2019-05-22T01:42:55.239Z,136.03
2019-05-22T01:45:25.352Z,134.47
2019-05-22T01:48:02.281Z,186.57
2019-05-22T01:50:44.441Z,150.55
2019-05-22T01:53:15.790Z,145.85
2019-05-22T01:55:45.879Z,159.30
2019-05-22T01:58:16.890Z,171.80
2019-05-22T02:00:47.841Z,164.60
2019-05-22T02:03:20.011Z,141.30
2019-05-22T02:05:49.801Z,135.20
2019-05-22T02:10:52.680Z,139.80
2019-05-22T02:13:28.510Z,156.82
2019-05-22T02:15:58.332Z,133.78
2019-05-22T02:20:58.061Z,122.98
2019-05-22T02:23:27.756Z,115.10
2019-05-22T02:25:57.888Z,100.33
2019-05-22T02:28:28.014Z,118.40
2019-05-22T02:30:57.636Z,107.43
2019-05-22T02:33:27.748Z,112.17
2019-05-22T02:35:58.131Z,95.95
2019-05-22T02:38:29.358Z,98.20
2019-05-22T02:40:59.182Z,89.85
2019-05-22T02:43:29.102Z,84.58
2019-05-22T02:48:28.174Z,91.15
2019-05-22T02:53:28.655Z,88.62
2019-05-22T02:55:58.652Z,92.55
2019-05-22T02:58:29.032Z,91.87
2019-05-22T03:01:02.753Z,89.30
2019-05-22T03:03:33.967Z,91.87
2019-05-22T03:06:06.682Z,92.55
2019-05-22T03:08:59.715Z,86.37
2019-05-22T03:11:39.731Z,86.22
2019-05-22T03:14:11.859Z,89.80
2019-05-22T03:17:00.565Z,83.35
2019-05-22T03:19:42.865Z,79.93
2019-05-22T03:22:30.958Z,73.40
2019-05-22T03:25:05.092Z,80.83
2019-05-22T03:27:40.096Z,82.27
2019-05-22T03:30:24.752Z,83.80
2019-05-22T03:32:56.301Z,86.17
2019-05-22T03:35:28.149Z,94.28
2019-05-22T03:37:59.266Z,81.22
2019-05-22T03:40:29.965Z,83.72
2019-05-22T03:43:02.144Z,75.57
2019-05-22T03:45:32.980Z,78.92
2019-05-22T03:48:05.155Z,77.17
2019-05-22T03:50:36.046Z,81.53
2019-05-22T03:53:17.852Z,86.20
2019-05-22T03:55:49.234Z,70.92
2019-05-22T03:58:19.803Z,76.57
2019-05-22T04:00:52.257Z,83.72
2019-05-22T04:03:23.800Z,83.10
2019-05-22T04:05:54.396Z,80.92
2019-05-22T04:08:26.657Z,81.90
2019-05-22T04:10:59.980Z,79.85
2019-05-22T04:13:29.682Z,91.10
2019-05-22T04:16:00.573Z,83.20
2019-05-22T04:18:31.840Z,81.92
2019-05-22T04:21:02.694Z,75.52
2019-05-22T04:23:32.648Z,91.25
2019-05-22T04:26:04.203Z,76.53
2019-05-22T04:28:36.928Z,76.30
2019-05-22T04:31:07.382Z,81.47
2019-05-22T04:33:37.203Z,76.80
2019-05-22T04:38:37.971Z,72.90
2019-05-22T04:41:10.250Z,73.92
2019-05-22T04:43:40.116Z,72.47
2019-05-22T04:48:40.100Z,78.42
2019-05-22T04:51:27.339Z,78.20
2019-05-22T04:53:57.596Z,75.92
2019-05-22T04:56:28.748Z,74.55
2019-05-22T04:58:59.652Z,73.05
2019-05-22T05:01:30.467Z,72.30
2019-05-22T05:04:00.762Z,73.97
2019-05-22T05:06:31.416Z,68.25
2019-05-22T05:09:01.385Z,76.53
2019-05-22T05:11:31.018Z,74.40
2019-05-22T05:14:00.735Z,70.78
2019-05-22T05:16:30.338Z,65.40
2019-05-22T05:19:00.341Z,71.02
2019-05-22T05:21:30.067Z,66.90
2019-05-22T05:23:59.805Z,67.50
2019-05-22T05:26:31.681Z,70.67
2019-05-22T05:29:02.146Z,74.53
2019-05-22T05:31:31.944Z,69.85
2019-05-22T05:34:19.543Z,70.08
2019-05-22T05:36:49.333Z,66.50
2019-05-22T05:41:58.747Z,67.03
2019-05-22T05:44:28.468Z,63.25
2019-05-22T05:46:58.560Z,66.70
2019-05-22T05:49:29.836Z,69.92
2019-05-22T05:51:59.842Z,66.53
2019-05-22T05:54:30.469Z,65.42
2019-05-22T05:57:19.729Z,69.17
2019-05-22T05:59:49.470Z,68.92
2019-05-22T06:02:20.922Z,67.30
2019-05-22T06:04:52.203Z,66.92
2019-05-22T06:07:23.479Z,63.98
2019-05-22T06:09:56.116Z,59.42
2019-05-22T06:12:26.004Z,63.08
2019-05-22T06:17:36.434Z,61.20
2019-05-22T06:20:17.137Z,63.10
2019-05-22T06:23:07.153Z,65.08
2019-05-22T06:25:37.504Z,65.65
2019-05-22T06:28:09.559Z,62.40
2019-05-22T06:30:42.401Z,60.98
2019-05-22T06:33:17.116Z,66.82
2019-05-22T06:35:48.532Z,61.02
2019-05-22T06:38:48.232Z,58.38
2019-05-22T06:41:20.236Z,66.07
2019-05-22T06:43:52.857Z,57.20
2019-05-22T06:46:44.879Z,61.60
2019-05-22T06:49:35.330Z,59.60
2019-05-22T06:52:07.308Z,58.90
2019-05-22T06:54:45.356Z,58.33
2019-05-22T06:57:16.843Z,58.98
2019-05-22T07:00:11.433Z,55.05
2019-05-22T07:02:26.148Z,58.10
2019-05-22T07:04:55.919Z,59.58
2019-05-22T07:09:56.247Z,56.58
2019-05-22T07:21:44.668Z,49.10
2019-05-22T07:24:14.199Z,50.92
2019-05-22T07:26:45.800Z,47.93
2019-05-22T07:29:16.983Z,51.77
2019-05-22T07:31:47.429Z,48.63
2019-05-22T07:34:17.774Z,54.42
2019-05-22T07:36:47.467Z,49.05
2019-05-22T07:41:46.428Z,54.13
2019-05-22T07:44:16.008Z,55.45
2019-05-22T07:46:45.968Z,52.78
2019-05-22T07:49:15.866Z,58.35
2019-05-22T07:51:55.908Z,53.13
2019-05-22T07:54:17.710Z,49.95
2019-05-22T07:56:47.790Z,49.90
2019-05-22T07:59:17.494Z,48.92
2019-05-22T08:04:18.174Z,52.08
2019-05-22T08:06:47.979Z,51.48
2019-05-22T08:09:20.038Z,52.78
2019-05-22T08:11:50.272Z,53.52
2019-05-22T08:14:21.343Z,48.92
2019-05-22T08:16:51.367Z,56.13
2019-05-22T08:19:21.748Z,52.13
2019-05-22T08:22:06.129Z,48.40
2019-05-22T08:24:24.037Z,45.67
2019-05-22T08:26:55.081Z,53.60
2019-05-22T08:29:25.620Z,52.98
2019-05-22T08:31:55.398Z,49.40
2019-05-22T08:34:29.058Z,49.68
2019-05-22T08:36:59.812Z,52.90
2019-05-22T08:39:29.822Z,55.58
2019-05-22T08:41:59.490Z,49.93
2019-05-22T08:46:59.702Z,51.20
2019-05-22T08:49:30.063Z,48.28
2019-05-22T08:52:00.243Z,50.78
2019-05-22T08:54:31.679Z,44.13
2019-05-22T08:57:02.614Z,46.28
2019-05-22T08:59:33.466Z,49.83
2019-05-22T09:02:04.110Z,45.05
2019-05-22T09:04:34.959Z,39.50
2019-05-22T09:07:04.831Z,40.10
2019-05-22T09:09:34.734Z,44.98
2019-05-22T09:12:05.585Z,44.00
2019-05-22T09:14:35.364Z,46.18
2019-05-22T09:17:06.937Z,39.65
2019-05-22T09:19:36.688Z,41.65
2019-05-22T09:24:39.150Z,38.63
2019-05-22T09:27:09.220Z,36.45
2019-05-22T09:29:38.886Z,44.60
2019-05-22T09:34:39.292Z,28.02
2019-05-22T09:37:09.551Z,25.25
2019-05-22T09:39:39.354Z,21.35
2019-05-22T09:42:09.085Z,22.22
2019-05-22T09:44:39.207Z,25.90
2019-05-22T09:47:09.795Z,22.22
2019-05-22T09:49:40.756Z,24.37
2019-05-22T09:52:10.970Z,20.02
2019-05-22T09:54:42.293Z,23.07
2019-05-22T09:57:12.262Z,21.12
2019-05-22T09:59:42.144Z,23.35
2019-05-22T10:02:12.311Z,22.65
2019-05-22T10:04:42.115Z,20.57
2019-05-22T10:07:11.911Z,24.30
2019-05-22T10:09:41.917Z,18.05
2019-05-22T10:12:11.786Z,15.13
2019-05-22T10:14:41.976Z,14.90
2019-05-22T10:17:12.160Z,11.90
2019-05-22T10:19:42.755Z,12.03
2019-05-22T10:22:12.671Z,11.38
2019-05-22T10:24:43.545Z,15.08
2019-05-22T10:27:13.864Z,16.23
2019-05-22T10:29:43.568Z,8.53
2019-05-22T10:32:13.255Z,12.63
2019-05-22T10:34:42.963Z,10.72
2019-05-22T10:37:12.884Z,11.55
2019-05-22T10:39:42.747Z,9.93
2019-05-22T10:42:12.578Z,12.70
2019-05-22T10:44:42.308Z,10.23
2019-05-22T10:47:12.904Z,17.17
2019-05-22T10:49:42.684Z,8.38
2019-05-22T10:52:12.981Z,13.98
2019-05-22T10:54:42.628Z,10.00
2019-05-22T10:59:41.385Z,14.53
2019-05-22T11:04:41.237Z,9.28
2019-05-22T11:07:12.246Z,10.50
2019-05-22T11:09:42.102Z,9.73
2019-05-22T11:12:13.102Z,10.68
2019-05-22T11:14:46.644Z,12.63
2019-05-22T11:17:16.407Z,11.93
2019-05-22T11:19:46.163Z,9.93
2019-05-22T11:22:19.285Z,11.53
2019-05-22T11:24:48.920Z,14.93
2019-05-22T11:27:18.958Z,17.32
2019-05-22T11:29:49.442Z,12.70
2019-05-22T11:32:19.069Z,13.15
2019-05-22T11:37:17.932Z,13.45
2019-05-22T11:39:47.973Z,12.20
2019-05-22T11:42:18.857Z,13.60
2019-05-22T11:44:50.111Z,13.53
2019-05-22T11:47:19.877Z,14.95
2019-05-22T11:49:49.979Z,30.15
2019-05-22T11:52:20.762Z,15.50
2019-05-22T11:54:50.481Z,15.88
2019-05-22T11:57:21.997Z,15.40
2019-05-22T11:59:51.566Z,10.48
2019-05-22T12:04:49.972Z,11.90
2019-05-22T12:09:58.591Z,10.18
2019-05-22T12:12:28.446Z,11.55
2019-05-22T12:14:58.321Z,11.10
2019-05-22T12:17:37.884Z,36.55
2019-05-22T12:19:59.336Z,13.50
2019-05-22T12:22:29.000Z,10.35
2019-05-22T12:24:59.525Z,11.95
2019-05-22T12:27:29.773Z,10.53
2019-05-22T12:29:59.765Z,12.47
2019-05-22T12:32:31.453Z,11.30
2019-05-22T12:35:01.629Z,10.90
2019-05-22T12:37:31.972Z,13.78
2019-05-22T12:40:03.541Z,13.35
2019-05-22T12:42:34.474Z,11.08
2019-05-22T12:45:07.384Z,11.12
2019-05-22T12:47:51.471Z,12.85
2019-05-22T12:50:21.549Z,14.03
2019-05-22T12:52:51.294Z,12.07
2019-05-22T12:55:21.615Z,10.78
2019-05-22T12:57:51.705Z,14.18
2019-05-22T13:00:24.058Z,13.08
2019-05-22T13:02:58.783Z,12.23
2019-05-22T13:08:11.552Z,12.93
2019-05-22T13:10:41.774Z,9.75
2019-05-22T13:16:14.297Z,11.80
2019-05-22T13:18:45.085Z,10.50
2019-05-22T13:21:18.529Z,16.57
2019-05-22T13:23:49.675Z,11.57
2019-05-22T13:26:19.307Z,14.47
2019-05-22T13:28:49.194Z,14.10
2019-05-22T13:31:19.521Z,11.45
2019-05-22T13:33:50.867Z,13.53
2019-05-22T13:36:21.202Z,12.28
2019-05-22T13:38:50.968Z,11.55
2019-05-22T13:41:21.031Z,13.98
2019-05-22T13:43:51.405Z,10.03
2019-05-22T13:46:21.252Z,14.83
2019-05-22T13:48:56.862Z,11.40
2019-05-22T13:51:35.990Z,9.88
2019-05-22T13:56:40.642Z,13.20
2019-05-22T14:02:00.032Z,10.20
2019-05-22T14:04:29.803Z,9.83
2019-05-22T14:06:59.775Z,9.60
2019-05-22T14:09:30.630Z,9.58
2019-05-22T14:12:00.623Z,10.72
2019-05-22T14:14:30.416Z,12.07
2019-05-22T14:17:00.306Z,9.78
2019-05-22T14:19:33.386Z,10.48
2019-05-22T14:22:07.876Z,8.78
2019-05-22T14:27:31.664Z,9.13
2019-05-22T14:33:04.418Z,10.85
2019-05-22T14:35:46.881Z,12.33
2019-05-22T14:38:05.540Z,10.88
2019-05-22T14:40:37.506Z,9.63
2019-05-22T14:43:07.869Z,9.60
2019-05-22T14:45:38.221Z,8.55
2019-05-22T14:48:08.485Z,11.20
2019-05-22T14:50:40.044Z,11.65
2019-05-22T14:53:11.526Z,9.20
2019-05-22T14:55:42.974Z,8.50
2019-05-22T14:58:13.139Z,9.28
2019-05-22T15:01:02.836Z,9.83
2019-05-22T15:03:32.551Z,9.25
2019-05-22T15:06:02.736Z,9.65
2019-05-22T15:08:32.488Z,10.63
2019-05-22T15:11:02.569Z,9.73
2019-05-22T15:13:32.559Z,9.58
2019-05-22T15:16:02.266Z,8.38
2019-05-22T15:18:32.435Z,9.45
2019-05-22T15:21:03.868Z,10.03
2019-05-22T15:23:34.028Z,9.40
2019-05-22T15:26:04.055Z,10.32
2019-05-22T15:28:34.330Z,10.18
2019-05-22T15:31:05.097Z,9.83
2019-05-22T15:33:35.059Z,9.10
2019-05-22T15:36:06.879Z,12.58
2019-05-22T15:38:41.100Z,9.55
2019-05-22T15:41:11.585Z,10.40
2019-05-22T15:43:43.453Z,10.20
2019-05-22T15:46:15.698Z,10.43
2019-05-22T15:48:47.709Z,9.70
2019-05-22T15:51:21.394Z,9.58
2019-05-22T15:53:52.860Z,12.70
2019-05-22T15:56:23.092Z,10.03
2019-05-22T15:58:54.931Z,9.43
2019-05-22T16:01:25.614Z,9.73
2019-05-22T16:03:56.841Z,8.98
2019-05-22T16:06:28.298Z,9.90
2019-05-22T16:08:58.440Z,10.25
2019-05-22T16:11:29.939Z,11.73
2019-05-22T16:14:00.993Z,11.50
2019-05-22T16:16:32.368Z,10.75
2019-05-22T16:19:05.167Z,11.75
2019-05-22T16:21:37.323Z,12.68
2019-05-22T16:24:07.918Z,12.20
2019-05-22T16:26:38.467Z,17.70
2019-05-22T16:29:08.814Z,11.57
2019-05-22T16:31:40.146Z,13.10
2019-05-22T16:34:10.478Z,12.68
2019-05-22T16:36:53.537Z,11.12
2019-05-22T16:39:24.028Z,16.02
2019-05-22T16:44:38.925Z,10.18
2019-05-22T16:47:09.856Z,13.13
2019-05-22T16:49:41.234Z,12.85
2019-05-22T16:52:11.464Z,12.18
2019-05-22T16:54:41.870Z,11.85
2019-05-22T16:57:13.019Z,11.40
2019-05-22T16:59:42.897Z,10.30
2019-05-22T17:02:17.026Z,10.50
2019-05-22T17:04:47.526Z,12.78
2019-05-22T17:07:18.507Z,11.68
2019-05-22T17:09:49.784Z,11.68
2019-05-22T17:12:20.427Z,13.62
2019-05-22T17:14:51.308Z,11.25
2019-05-22T17:17:20.977Z,14.07
2019-05-22T17:19:50.928Z,13.75
2019-05-22T17:22:20.822Z,11.83
2019-05-22T17:24:50.891Z,10.60
2019-05-22T17:27:21.598Z,12.55
2019-05-22T17:29:52.178Z,11.43
2019-05-22T17:32:23.875Z,14.47
2019-05-22T17:34:53.779Z,10.55
2019-05-22T17:37:25.296Z,9.68
2019-05-22T17:39:55.151Z,10.98
2019-05-22T17:42:27.459Z,9.65
2019-05-22T17:44:58.693Z,10.80
2019-05-22T17:47:30.793Z,12.30
2019-05-22T17:50:03.197Z,11.30
2019-05-22T17:52:33.312Z,12.60
2019-05-22T17:55:04.862Z,14.90
2019-05-22T17:57:34.882Z,12.37
2019-05-22T18:00:14.008Z,10.68
2019-05-22T18:02:44.090Z,14.18
2019-05-22T18:05:14.944Z,14.23
2019-05-22T18:07:45.816Z,14.63
2019-05-22T18:10:15.781Z,13.88
2019-05-22T18:12:45.539Z,15.20
2019-05-22T18:17:45.606Z,20.80
2019-05-22T18:20:16.135Z,11.95
2019-05-22T18:22:46.188Z,13.30
2019-05-22T18:25:18.744Z,11.63
2019-05-22T18:28:04.529Z,12.05
2019-05-22T18:30:47.689Z,14.18
2019-05-22T18:33:25.625Z,17.25
2019-05-22T18:35:59.507Z,15.88
2019-05-22T18:38:44.855Z,12.30
2019-05-22T18:41:15.034Z,11.20
2019-05-22T18:43:44.925Z,16.02
2019-05-22T18:46:14.786Z,13.90
2019-05-22T18:48:48.323Z,10.50
2019-05-22T18:51:18.265Z,11.75
2019-05-22T18:53:48.845Z,13.45
2019-05-22T18:56:18.743Z,18.73
2019-05-22T18:58:48.524Z,12.55
2019-05-22T19:03:47.409Z,14.77
2019-05-22T19:06:29.662Z,13.20
2019-05-22T19:08:49.162Z,12.35
2019-05-22T19:11:19.183Z,12.28
2019-05-22T19:13:49.026Z,10.90
2019-05-22T19:16:18.714Z,13.30
2019-05-22T19:21:17.206Z,14.28
2019-05-22T19:26:32.272Z,9.90
2019-05-22T19:29:02.574Z,9.83
2019-05-22T19:31:45.453Z,8.05
2019-05-22T19:34:20.306Z,8.35
2019-05-22T19:36:50.060Z,9.35
2019-05-22T19:42:05.704Z,10.35
2019-05-22T19:44:37.136Z,9.55
2019-05-22T19:47:09.745Z,8.48
2019-05-22T19:49:43.746Z,11.00
2019-05-22T19:52:14.564Z,10.15
2019-05-22T19:54:44.460Z,13.40
2019-05-22T19:57:14.890Z,8.20
2019-05-22T19:59:44.851Z,8.53
2019-05-22T20:02:16.963Z,8.90
2019-05-22T20:04:47.783Z,13.10
2019-05-22T20:09:48.465Z,25.92
2019-05-22T20:12:18.077Z,24.87
2019-05-22T20:14:47.921Z,26.27
2019-05-22T20:17:17.834Z,27.05
2019-05-22T20:22:21.920Z,16.82
2019-05-22T20:24:51.754Z,15.32
2019-05-22T20:27:21.821Z,14.10
2019-05-22T20:29:51.769Z,13.35
2019-05-22T20:32:22.305Z,16.52
2019-05-22T20:34:51.938Z,18.65
2019-05-22T20:37:22.487Z,17.45
2019-05-22T20:39:54.863Z,19.50
2019-05-22T20:54:56.908Z,15.53
2019-05-22T21:03:15.984Z,20.27
2019-05-22T21:05:53.240Z,17.60
2019-05-22T21:08:25.258Z,17.42
2019-05-22T21:10:59.060Z,17.50
2019-05-22T21:13:31.873Z,19.37
2019-05-22T21:16:03.230Z,20.52
2019-05-22T21:18:37.143Z,20.55
2019-05-22T21:21:08.436Z,23.73
2019-05-22T21:23:38.859Z,22.10
2019-05-22T21:26:09.960Z,19.70
2019-05-22T21:28:40.355Z,19.62
2019-05-22T21:31:10.214Z,21.80
2019-05-22T21:33:40.044Z,20.00
2019-05-22T21:38:39.939Z,27.02
2019-05-22T21:41:10.163Z,27.75
2019-05-22T21:43:40.110Z,33.85
2019-05-22T21:46:10.216Z,32.78
2019-05-22T21:48:40.002Z,34.60
2019-05-22T21:53:38.554Z,35.50
2019-05-22T21:56:08.987Z,31.52
2019-05-22T21:58:39.072Z,30.37
2019-05-22T22:01:12.588Z,31.80
2019-05-22T22:03:54.562Z,31.60
2019-05-22T22:06:24.619Z,31.80
2019-05-22T22:08:54.254Z,32.55
2019-05-22T22:11:25.952Z,31.95
2019-05-22T22:13:56.122Z,34.10
2019-05-22T22:16:25.822Z,31.15
2019-05-22T22:21:25.527Z,31.70
2019-05-22T22:23:55.375Z,31.95
2019-05-22T22:28:56.275Z,32.95
2019-05-22T22:31:27.561Z,31.50
2019-05-22T22:34:00.449Z,36.33
2019-05-22T22:36:30.222Z,35.30
2019-05-22T22:38:59.891Z,36.73
2019-05-22T22:41:29.520Z,32.83
2019-05-22T22:43:59.307Z,30.52
2019-05-22T22:49:13.454Z,29.70
2019-05-22T22:51:45.803Z,28.45
2019-05-22T22:54:15.474Z,31.12
2019-05-22T22:56:45.639Z,31.40
2019-05-22T22:59:15.910Z,29.35
2019-05-22T23:01:48.603Z,31.00
2019-05-22T23:04:20.067Z,29.95
2019-05-22T23:06:50.103Z,29.98
2019-05-22T23:09:19.741Z,29.15
2019-05-22T23:11:49.960Z,30.95
2019-05-22T23:14:23.018Z,30.00
2019-05-22T23:16:53.339Z,34.43
2019-05-22T23:19:38.285Z,34.13
2019-05-22T23:22:08.444Z,35.15
2019-05-22T23:24:40.344Z,30.85
2019-05-22T23:27:10.807Z,29.42
2019-05-22T23:29:42.386Z,34.33
2019-05-22T23:32:14.312Z,34.15
2019-05-22T23:34:44.848Z,27.30
2019-05-22T23:37:15.148Z,26.75
2019-05-22T23:39:46.404Z,33.40
2019-05-22T23:42:19.229Z,35.05
2019-05-22T23:44:50.750Z,34.08
2019-05-22T23:47:20.456Z,32.58
2019-05-22T23:49:50.750Z,30.90
2019-05-22T23:52:20.738Z,34.78
2019-05-22T23:54:51.589Z,34.88
2019-05-22T23:57:22.768Z,34.38
2019-05-22T23:59:54.374Z,32.93
